createdAt,value
2018-07-27T00:00:20.520Z,35.4
2018-07-27T00:01:10.330Z,35.4
2018-07-27T00:01:59.880Z,35.4
2018-07-27T00:02:50.137Z,35.4
2018-07-27T00:03:40.255Z,35.4
2018-07-27T00:04:29.803Z,35.4
2018-07-27T00:05:19.870Z,35.4
2018-07-27T00:06:10.195Z,35.3
2018-07-27T00:07:00.282Z,35.3
2018-07-27T00:07:50.063Z,35.3
2018-07-27T00:08:40.594Z,35.4
2018-07-27T00:09:30.345Z,35.3
2018-07-27T00:10:21.129Z,35.3
2018-07-27T00:11:10.796Z,35.3
2018-07-27T00:12:01.429Z,35.3
2018-07-27T00:12:51.196Z,35.3
2018-07-27T00:13:41.029Z,35.3
2018-07-27T00:14:30.739Z,35.3
2018-07-27T00:15:21.144Z,35.3
2018-07-27T00:16:10.937Z,35.3
2018-07-27T00:17:01.510Z,35.3
2018-07-27T00:17:51.050Z,35.3
2018-07-27T00:18:41.365Z,35.3
2018-07-27T00:19:31.129Z,35.3
2018-07-27T00:20:21.539Z,35.3
2018-07-27T00:21:11.591Z,35.3
2018-07-27T00:22:01.351Z,35.3
2018-07-27T00:22:51.698Z,35.3
2018-07-27T00:23:42.053Z,35.3
2018-07-27T00:24:31.291Z,35.3
2018-07-27T00:25:21.965Z,35.3
2018-07-27T00:26:11.511Z,35.3
2018-07-27T00:27:02.301Z,35.3
2018-07-27T00:27:52.350Z,35.3
2018-07-27T00:28:42.714Z,35.3
2018-07-27T00:29:32.458Z,35.3
2018-07-27T00:30:22.837Z,35.3
2018-07-27T00:31:12.321Z,35.3
2018-07-27T00:32:02.972Z,35.3
2018-07-27T00:32:53.029Z,35.3
2018-07-27T00:33:42.223Z,35.3
2018-07-27T00:34:32.918Z,35.3
2018-07-27T00:35:22.968Z,35.3
2018-07-27T00:36:13.252Z,35.3
2018-07-27T00:37:03.344Z,35.2
2018-07-27T00:37:53.372Z,35.3
2018-07-27T00:38:42.880Z,35.3
2018-07-27T00:39:33.235Z,35.2
2018-07-27T00:40:22.485Z,35.2
2018-07-27T00:41:13.084Z,35.3
2018-07-27T00:42:03.168Z,35.3
2018-07-27T00:42:53.238Z,35.3
2018-07-27T00:43:42.713Z,35.3
2018-07-27T00:44:33.647Z,35.3
2018-07-27T00:45:23.157Z,35.2
2018-07-27T00:46:13.760Z,35.2
2018-07-27T00:47:03.775Z,35.2
2018-07-27T00:47:53.612Z,35.2
2018-07-27T00:48:44.008Z,35.3
2018-07-27T00:49:34.275Z,35.2
2018-07-27T00:50:23.557Z,35.2
2018-07-27T00:51:13.839Z,35.2
2018-07-27T00:52:04.475Z,35.2
2018-07-27T00:52:53.986Z,35.2
2018-07-27T00:53:44.068Z,35.2
2018-07-27T00:54:34.104Z,35.2
2018-07-27T00:55:23.641Z,35.2
2018-07-27T00:56:13.961Z,35.2
2018-07-27T00:57:04.070Z,35.2
2018-07-27T00:57:54.963Z,35.2
2018-07-27T00:58:44.471Z,35.2
2018-07-27T00:59:34.528Z,35.2
2018-07-27T01:00:24.849Z,35.2
2018-07-27T01:01:14.952Z,35.1
2018-07-27T01:02:04.410Z,35.2
2018-07-27T01:02:55.442Z,35.1
2018-07-27T01:03:44.806Z,35.1
2018-07-27T01:04:35.216Z,35.2
2018-07-27T01:05:25.213Z,35.1
2018-07-27T01:06:15.307Z,35.2
2018-07-27T01:07:05.657Z,35.1
2018-07-27T01:07:55.173Z,35.1
2018-07-27T01:08:44.691Z,35.1
2018-07-27T01:09:35.556Z,35.1
2018-07-27T01:10:25.604Z,35.1
2018-07-27T01:11:15.993Z,35.1
2018-07-27T01:12:05.414Z,35.1
2018-07-27T01:12:56.112Z,35.1
2018-07-27T01:13:46.172Z,35.1
2018-07-27T01:14:35.662Z,35.1
2018-07-27T01:15:26.011Z,35.1
2018-07-27T01:16:15.797Z,35.1
2018-07-27T01:17:05.566Z,35.1
2018-07-27T01:17:55.874Z,35.1
2018-07-27T01:18:46.503Z,35.1
2018-07-27T01:19:35.729Z,35.1
2018-07-27T01:20:26.697Z,35.1
2018-07-27T01:21:16.724Z,35.1
2018-07-27T01:22:06.243Z,35.1
2018-07-27T01:22:56.326Z,35.1
2018-07-27T01:23:46.870Z,35.1
2018-07-27T01:24:36.718Z,35.1
2018-07-27T01:25:26.284Z,35.1
2018-07-27T01:26:17.098Z,35.1
2018-07-27T01:27:06.624Z,35.1
2018-07-27T01:27:57.247Z,35.1
2018-07-27T01:28:47.029Z,35.1
2018-07-27T01:29:37.144Z,35.1
2018-07-27T01:30:27.438Z,35.1
2018-07-27T01:31:17.461Z,35.1
2018-07-27T01:32:06.425Z,35.1
2018-07-27T01:32:57.348Z,35.1
2018-07-27T01:33:47.407Z,35.1
2018-07-27T01:34:37.467Z,35.1
2018-07-27T01:35:27.552Z,35.1
2018-07-27T01:36:17.325Z,35.1
2018-07-27T01:37:06.833Z,35.1
2018-07-27T01:37:57.422Z,35.1
2018-07-27T01:38:47.543Z,35.1
2018-07-27T01:39:38.131Z,35
2018-07-27T01:40:27.376Z,35
2018-07-27T01:41:17.978Z,35.1
2018-07-27T01:42:07.187Z,35.1
2018-07-27T01:42:58.380Z,35
2018-07-27T01:43:48.140Z,35.1
2018-07-27T01:44:37.956Z,35.1
2018-07-27T01:45:28.014Z,35
2018-07-27T01:46:18.097Z,35
2018-07-27T01:47:08.667Z,35
2018-07-27T01:47:58.826Z,35.1
2018-07-27T01:48:48.533Z,35
2018-07-27T01:49:38.320Z,35
2018-07-27T01:50:28.947Z,35
2018-07-27T01:51:18.466Z,35
2018-07-27T01:52:08.269Z,35
2018-07-27T01:52:58.822Z,34.9
2018-07-27T01:53:49.182Z,35
2018-07-27T01:54:38.764Z,34.9
2018-07-27T01:55:29.072Z,35
2018-07-27T01:56:19.401Z,35
2018-07-27T01:57:09.438Z,35
2018-07-27T01:57:59.501Z,34.9
2018-07-27T01:58:49.321Z,34.9
2018-07-27T01:59:39.042Z,34.9
2018-07-27T02:00:29.711Z,34.9
2018-07-27T02:01:19.770Z,34.9
2018-07-27T02:02:09.616Z,34.9
2018-07-27T02:02:59.894Z,34.9
2018-07-27T02:03:49.128Z,34.9
2018-07-27T02:04:39.212Z,34.9
2018-07-27T02:05:29.841Z,34.9
2018-07-27T02:06:20.211Z,34.9
2018-07-27T02:07:09.745Z,34.9
2018-07-27T02:07:59.538Z,34.9
2018-07-27T02:08:50.383Z,34.9
2018-07-27T02:09:40.447Z,34.9
2018-07-27T02:10:30.525Z,34.9
2018-07-27T02:11:19.992Z,34.9
2018-07-27T02:12:10.382Z,34.9
2018-07-27T02:13:00.736Z,34.9
2018-07-27T02:13:50.500Z,34.9
2018-07-27T02:14:40.596Z,34.9
2018-07-27T02:15:30.311Z,34.9
2018-07-27T02:16:20.431Z,34.9
2018-07-27T02:17:10.472Z,34.9
2018-07-27T02:18:01.115Z,34.9
2018-07-27T02:18:50.612Z,34.9
2018-07-27T02:19:40.932Z,34.9
2018-07-27T02:20:30.693Z,34.9
2018-07-27T02:21:20.834Z,34.9
2018-07-27T02:22:11.123Z,34.9
2018-07-27T02:23:01.160Z,34.9
2018-07-27T02:23:51.257Z,34.9
2018-07-27T02:24:41.031Z,34.9
2018-07-27T02:25:31.124Z,34.9
2018-07-27T02:26:20.611Z,34.9
2018-07-27T02:27:11.217Z,34.9
2018-07-27T02:28:01.276Z,34.9
2018-07-27T02:28:51.875Z,34.9
2018-07-27T02:29:41.968Z,34.9
2018-07-27T02:30:31.288Z,34.9
2018-07-27T02:31:21.831Z,34.9
2018-07-27T02:32:12.166Z,34.9
2018-07-27T02:33:02.270Z,34.9
2018-07-27T02:33:51.829Z,34.9
2018-07-27T02:34:42.382Z,34.9
2018-07-27T02:35:31.848Z,34.9
2018-07-27T02:36:22.496Z,34.9
2018-07-27T02:37:12.262Z,34.9
2018-07-27T02:38:02.393Z,34.8
2018-07-27T02:38:52.113Z,34.8
2018-07-27T02:39:42.479Z,34.8
2018-07-27T02:40:32.544Z,34.8
2018-07-27T02:41:22.883Z,34.8
2018-07-27T02:42:12.362Z,34.8
2018-07-27T02:43:02.165Z,34.8
2018-07-27T02:43:52.254Z,34.8
2018-07-27T02:44:42.320Z,34.8
2018-07-27T02:45:32.454Z,34.8
2018-07-27T02:46:23.284Z,34.8
2018-07-27T02:47:13.053Z,34.8
2018-07-27T02:48:02.885Z,34.8
2018-07-27T02:48:53.194Z,34.8
2018-07-27T02:49:42.999Z,34.8
2018-07-27T02:50:33.312Z,34.8
2018-07-27T02:51:23.245Z,34.8
2018-07-27T02:52:13.731Z,34.8
2018-07-27T02:53:03.320Z,34.8
2018-07-27T02:53:53.304Z,34.8
2018-07-27T02:54:43.640Z,34.8
2018-07-27T02:55:33.696Z,34.8
2018-07-27T02:56:23.480Z,34.8
2018-07-27T02:57:13.801Z,34.8
2018-07-27T02:58:03.874Z,34.8
2018-07-27T02:58:53.618Z,34.8
2018-07-27T02:59:44.297Z,34.8
2018-07-27T03:00:34.045Z,34.8
2018-07-27T03:01:24.179Z,34.8
2018-07-27T03:02:13.912Z,34.8
2018-07-27T03:03:03.974Z,34.8
2018-07-27T03:03:54.603Z,34.8
2018-07-27T03:04:44.405Z,34.8
2018-07-27T03:05:34.482Z,34.8
2018-07-27T03:06:24.565Z,34.8
2018-07-27T03:07:14.870Z,34.8
2018-07-27T03:08:04.681Z,34.8
2018-07-27T03:08:54.145Z,34.8
2018-07-27T03:09:44.328Z,34.8
2018-07-27T03:10:34.589Z,34.8
2018-07-27T03:11:24.625Z,34.8
2018-07-27T03:12:14.991Z,34.8
2018-07-27T03:13:05.310Z,34.8
2018-07-27T03:13:54.815Z,34.8
2018-07-27T03:14:44.637Z,34.8
2018-07-27T03:15:34.660Z,34.8
2018-07-27T03:16:25.067Z,34.7
2018-07-27T03:17:14.742Z,34.8
2018-07-27T03:18:05.731Z,34.7
2018-07-27T03:18:55.762Z,34.7
2018-07-27T03:19:45.256Z,34.7
2018-07-27T03:20:35.593Z,34.7
2018-07-27T03:21:25.344Z,34.7
2018-07-27T03:22:15.446Z,34.7
2018-07-27T03:23:06.031Z,34.7
2018-07-27T03:23:55.884Z,34.7
2018-07-27T03:24:45.651Z,34.7
2018-07-27T03:25:36.067Z,34.7
2018-07-27T03:26:25.777Z,34.7
2018-07-27T03:27:15.809Z,34.7
2018-07-27T03:28:06.446Z,34.7
2018-07-27T03:28:55.640Z,34.7
2018-07-27T03:29:46.253Z,34.7
2018-07-27T03:30:36.803Z,34.7
2018-07-27T03:31:26.719Z,34.7
2018-07-27T03:32:16.060Z,34.7
2018-07-27T03:33:06.307Z,34.7
2018-07-27T03:33:56.908Z,34.7
2018-07-27T03:34:46.665Z,34.7
2018-07-27T03:35:36.476Z,34.7
2018-07-27T03:36:26.803Z,34.7
2018-07-27T03:37:16.589Z,34.7
2018-07-27T03:38:06.285Z,34.7
2018-07-27T03:38:56.958Z,34.7
2018-07-27T03:39:46.779Z,34.6
2018-07-27T03:40:37.134Z,34.7
2018-07-27T03:41:27.258Z,34.6
2018-07-27T03:42:16.839Z,34.6
2018-07-27T03:43:07.309Z,34.6
2018-07-27T03:43:57.413Z,34.6
2018-07-27T03:44:46.611Z,34.6
2018-07-27T03:45:37.327Z,34.6
2018-07-27T03:46:26.997Z,34.6
2018-07-27T03:47:16.779Z,34.6
2018-07-27T03:48:07.758Z,34.6
2018-07-27T03:48:58.018Z,34.6
2018-07-27T03:49:47.255Z,34.6
2018-07-27T03:50:37.051Z,34.6
2018-07-27T03:51:27.688Z,34.6
2018-07-27T03:52:18.295Z,34.6
2018-07-27T03:53:08.038Z,34.6
2018-07-27T03:53:57.842Z,34.6
2018-07-27T03:54:47.896Z,34.6
2018-07-27T03:55:38.560Z,34.6
2018-07-27T03:56:28.577Z,34.6
2018-07-27T03:57:18.403Z,34.6
2018-07-27T03:58:08.174Z,34.6
2018-07-27T03:58:57.953Z,34.6
2018-07-27T03:59:48.296Z,34.6
2018-07-27T04:00:38.098Z,34.6
2018-07-27T04:01:28.740Z,34.6
2018-07-27T04:02:19.113Z,34.6
2018-07-27T04:03:08.005Z,34.6
2018-07-27T04:03:59.216Z,34.6
2018-07-27T04:04:48.385Z,34.6
2018-07-27T04:05:39.297Z,34.6
2018-07-27T04:06:28.806Z,34.6
2018-07-27T04:07:19.603Z,34.6
2018-07-27T04:08:09.508Z,34.6
2018-07-27T04:08:59.293Z,34.6
2018-07-27T04:09:49.355Z,34.6
2018-07-27T04:10:38.614Z,34.6
2018-07-27T04:11:29.497Z,34.6
2018-07-27T04:12:19.837Z,34.6
2018-07-27T04:13:09.343Z,34.6
2018-07-27T04:13:59.193Z,34.6
2018-07-27T04:14:49.288Z,34.6
2018-07-27T04:15:40.052Z,34.6
2018-07-27T04:16:29.867Z,34.5
2018-07-27T04:17:19.741Z,34.6
2018-07-27T04:18:09.242Z,34.6
2018-07-27T04:18:59.292Z,34.6
2018-07-27T04:19:49.960Z,34.6
2018-07-27T04:20:39.437Z,34.6
2018-07-27T04:21:30.511Z,34.6
2018-07-27T04:22:19.235Z,34.5
2018-07-27T04:23:10.089Z,34.5
2018-07-27T04:23:59.890Z,34.5
2018-07-27T04:24:49.981Z,34.5
2018-07-27T04:25:40.306Z,34.5
2018-07-27T04:26:31.365Z,34.5
2018-07-27T04:27:20.222Z,34.5
2018-07-27T04:28:11.006Z,34.5
2018-07-27T04:29:01.111Z,34.6
2018-07-27T04:29:51.189Z,34.5
2018-07-27T04:30:40.667Z,34.5
2018-07-27T04:31:31.295Z,34.5
2018-07-27T04:32:20.296Z,34.6
2018-07-27T04:33:10.847Z,34.5
2018-07-27T04:34:01.500Z,34.5
2018-07-27T04:34:51.260Z,34.5
2018-07-27T04:35:41.797Z,34.5
2018-07-27T04:36:31.663Z,34.5
2018-07-27T04:37:21.743Z,34.5
2018-07-27T04:38:11.527Z,34.5
2018-07-27T04:39:01.883Z,34.5
2018-07-27T04:39:51.957Z,34.5
2018-07-27T04:40:41.463Z,34.5
2018-07-27T04:41:32.010Z,34.5
2018-07-27T04:42:22.087Z,34.5
2018-07-27T04:43:11.630Z,34.4
2018-07-27T04:44:02.204Z,34.5
2018-07-27T04:44:52.272Z,34.5
2018-07-27T04:45:41.787Z,34.5
2018-07-27T04:46:31.942Z,34.4
2018-07-27T04:47:21.974Z,34.5
2018-07-27T04:48:12.664Z,34.4
2018-07-27T04:49:02.054Z,34.4
2018-07-27T04:49:51.854Z,34.4
2018-07-27T04:50:42.461Z,34.4
2018-07-27T04:51:32.598Z,34.4
2018-07-27T04:52:22.617Z,34.4
2018-07-27T04:53:12.954Z,34.4
2018-07-27T04:54:03.034Z,34.4
2018-07-27T04:54:52.772Z,34.4
2018-07-27T04:55:42.577Z,34.4
2018-07-27T04:56:32.955Z,34.4
2018-07-27T04:57:22.729Z,34.4
2018-07-27T04:58:13.342Z,34.4
2018-07-27T04:59:02.846Z,34.4
2018-07-27T04:59:53.449Z,34.4
2018-07-27T05:00:43.052Z,34.4
2018-07-27T05:01:33.302Z,34.4
2018-07-27T05:02:23.650Z,34.4
2018-07-27T05:03:12.946Z,34.4
2018-07-27T05:04:03.730Z,34.4
2018-07-27T05:04:53.997Z,34.4
2018-07-27T05:05:43.595Z,34.4
2018-07-27T05:06:33.704Z,34.4
2018-07-27T05:07:23.711Z,34.4
2018-07-27T05:08:13.590Z,34.4
2018-07-27T05:09:04.128Z,34.4
2018-07-27T05:09:53.929Z,34.4
2018-07-27T05:10:44.260Z,34.4
2018-07-27T05:11:34.395Z,34.4
2018-07-27T05:12:23.947Z,34.4
2018-07-27T05:13:13.999Z,34.4
2018-07-27T05:14:04.516Z,34.4
2018-07-27T05:14:54.025Z,34.4
2018-07-27T05:15:44.667Z,34.4
2018-07-27T05:16:34.434Z,34.4
2018-07-27T05:17:24.022Z,34.4
2018-07-27T05:18:14.850Z,34.4
2018-07-27T05:19:04.425Z,34.4
2018-07-27T05:19:54.473Z,34.4
2018-07-27T05:20:44.805Z,34.4
2018-07-27T05:21:34.364Z,34.4
2018-07-27T05:22:24.225Z,34.4
2018-07-27T05:23:14.287Z,34.4
2018-07-27T05:24:04.607Z,34.4
2018-07-27T05:24:54.946Z,34.4
2018-07-27T05:25:44.901Z,34.4
2018-07-27T05:26:35.252Z,34.4
2018-07-27T05:27:25.004Z,34.4
2018-07-27T05:28:15.131Z,34.4
2018-07-27T05:29:05.701Z,34.4
2018-07-27T05:29:55.735Z,34.4
2018-07-27T05:30:45.264Z,34.4
2018-07-27T05:31:35.039Z,34.4
2018-07-27T05:32:24.910Z,34.4
2018-07-27T05:33:15.444Z,34.4
2018-07-27T05:34:05.241Z,34.4
2018-07-27T05:34:55.349Z,34.4
2018-07-27T05:35:45.667Z,34.4
2018-07-27T05:36:35.723Z,34.4
2018-07-27T05:37:26.343Z,34.3
2018-07-27T05:38:16.130Z,34.4
2018-07-27T05:39:05.924Z,34.3
2018-07-27T05:39:56.269Z,34.3
2018-07-27T05:40:46.022Z,34.3
2018-07-27T05:41:35.819Z,34.4
2018-07-27T05:42:26.138Z,34.3
2018-07-27T05:43:16.779Z,34.3
2018-07-27T05:44:06.549Z,34.4
2018-07-27T05:44:56.349Z,34.3
2018-07-27T05:45:45.821Z,34.3
2018-07-27T05:46:36.455Z,34.3
2018-07-27T05:47:26.557Z,34.3
2018-07-27T05:48:16.338Z,34.3
2018-07-27T05:49:07.242Z,34.3
2018-07-27T05:49:57.274Z,34.3
2018-07-27T05:50:47.381Z,34.3
2018-07-27T05:51:37.119Z,34.3
2018-07-27T05:52:27.168Z,34.3
2018-07-27T05:53:17.224Z,34.3
2018-07-27T05:54:07.348Z,34.3
2018-07-27T05:54:56.596Z,34.3
2018-07-27T05:55:47.709Z,34.3
2018-07-27T05:56:37.756Z,34.3
2018-07-27T05:57:27.850Z,34.3
2018-07-27T05:58:17.383Z,34.3
2018-07-27T05:59:07.712Z,34.3
2018-07-27T05:59:58.040Z,34.3
2018-07-27T06:00:47.844Z,34.3
2018-07-27T06:01:38.150Z,34.3
2018-07-27T06:02:27.985Z,34.3
2018-07-27T06:03:17.487Z,34.3
2018-07-27T06:04:08.110Z,34.3
2018-07-27T06:04:59.094Z,34.3
2018-07-27T06:05:48.549Z,34.3
2018-07-27T06:06:37.985Z,34.3
2018-07-27T06:07:28.358Z,34.3
2018-07-27T06:08:18.133Z,34.3
2018-07-27T06:09:08.215Z,34.3
2018-07-27T06:09:58.267Z,34.3
2018-07-27T06:10:48.646Z,34.3
2018-07-27T06:11:38.686Z,34.3
2018-07-27T06:12:27.863Z,34.3
2018-07-27T06:13:19.108Z,34.3
2018-07-27T06:14:09.114Z,34.3
2018-07-27T06:14:58.338Z,34.3
2018-07-27T06:15:49.210Z,34.3
2018-07-27T06:16:38.737Z,34.3
2018-07-27T06:17:29.137Z,34.3
2018-07-27T06:18:19.547Z,34.3
2018-07-27T06:19:09.500Z,34.3
2018-07-27T06:19:59.272Z,34.3
2018-07-27T06:20:49.339Z,34.3
2018-07-27T06:21:39.720Z,34.3
2018-07-27T06:22:29.483Z,34.3
2018-07-27T06:23:19.576Z,34.3
2018-07-27T06:24:11.521Z,34.3
2018-07-27T06:24:59.400Z,34.3
2018-07-27T06:25:49.852Z,34.3
2018-07-27T06:26:39.833Z,34.3
2018-07-27T06:27:29.855Z,34.3
2018-07-27T06:28:21.041Z,34.3
2018-07-27T06:29:10.581Z,34.2
2018-07-27T06:30:00.772Z,34.3
2018-07-27T06:30:50.362Z,34.2
2018-07-27T06:31:40.447Z,34.3
2018-07-27T06:32:30.080Z,34.3
2018-07-27T06:33:20.070Z,34.3
2018-07-27T06:34:10.407Z,34.3
2018-07-27T06:34:59.902Z,34.2
2018-07-27T06:35:49.653Z,34.3
2018-07-27T06:36:40.030Z,34.2
2018-07-27T06:37:30.637Z,34.2
2018-07-27T06:38:20.713Z,34.3
2018-07-27T06:39:12.015Z,34.3
2018-07-27T06:40:00.822Z,34.3
2018-07-27T06:40:50.895Z,34.3
2018-07-27T06:41:40.689Z,34.2
2018-07-27T06:42:30.765Z,34.2
2018-07-27T06:43:21.064Z,34.2
2018-07-27T06:44:11.157Z,34.2
2018-07-27T06:45:00.691Z,34.2
2018-07-27T06:45:50.529Z,34.3
2018-07-27T06:46:41.181Z,34.2
2018-07-27T06:47:30.590Z,34.2
2018-07-27T06:48:21.482Z,34.2
2018-07-27T06:49:10.523Z,34.2
2018-07-27T06:50:00.738Z,34.2
2018-07-27T06:50:51.458Z,34.2
2018-07-27T06:51:41.765Z,34.2
2018-07-27T06:52:32.537Z,34.2
2018-07-27T06:53:21.354Z,34.2
2018-07-27T06:54:11.979Z,34.3
2018-07-27T06:55:01.515Z,34.3
2018-07-27T06:55:51.812Z,34.3
2018-07-27T06:56:41.678Z,34.3
2018-07-27T06:57:32.450Z,34.3
2018-07-27T06:58:22.232Z,34.3
2018-07-27T06:59:12.293Z,34.3
2018-07-27T07:00:02.093Z,34.3
2018-07-27T07:00:51.876Z,34.4
2018-07-27T07:01:42.798Z,34.4
2018-07-27T07:02:32.318Z,34.4
2018-07-27T07:03:22.593Z,34.4
2018-07-27T07:04:12.693Z,34.4
2018-07-27T07:05:01.958Z,34.4
2018-07-27T07:05:52.223Z,34.4
2018-07-27T07:06:43.152Z,34.5
2018-07-27T07:07:33.205Z,34.4
2018-07-27T07:08:22.432Z,34.4
2018-07-27T07:09:13.424Z,34.4
2018-07-27T07:10:02.292Z,34.4
2018-07-27T07:10:53.489Z,34.4
2018-07-27T07:11:42.963Z,34.3
2018-07-27T07:12:33.065Z,34.3
2018-07-27T07:13:22.969Z,34.2
2018-07-27T07:14:12.906Z,34.1
2018-07-27T07:15:03.248Z,34.1
2018-07-27T07:15:53.269Z,34
2018-07-27T07:16:43.372Z,34
2018-07-27T07:17:33.708Z,33.9
2018-07-27T07:18:23.978Z,33.9
2018-07-27T07:19:14.115Z,33.9
2018-07-27T07:20:04.172Z,33.9
2018-07-27T07:20:53.679Z,33.9
2018-07-27T07:21:44.054Z,33.8
2018-07-27T07:22:33.539Z,33.8
2018-07-27T07:23:24.425Z,33.8
2018-07-27T07:24:14.474Z,33.8
2018-07-27T07:25:04.650Z,33.8
2018-07-27T07:25:58.557Z,33.8
2018-07-27T07:26:44.426Z,33.8
2018-07-27T07:27:34.170Z,33.7
2018-07-27T07:28:24.789Z,33.7
2018-07-27T07:29:14.558Z,33.7
2018-07-27T07:30:04.949Z,33.6
2018-07-27T07:30:55.009Z,33.7
2018-07-27T07:31:44.790Z,33.7
2018-07-27T07:32:34.584Z,33.6
2018-07-27T07:33:25.226Z,33.6
2018-07-27T07:34:15.280Z,33.6
2018-07-27T07:35:05.328Z,33.6
2018-07-27T07:35:54.523Z,33.6
2018-07-27T07:36:44.904Z,33.6
2018-07-27T07:37:35.201Z,34
2018-07-27T07:38:25.268Z,41.8
2018-07-27T07:39:16.682Z,42
2018-07-27T07:40:05.717Z,41.5
2018-07-27T07:40:55.762Z,41.1
2018-07-27T07:41:45.545Z,40.8
2018-07-27T07:42:36.010Z,40.4
2018-07-27T07:43:25.398Z,40.1
2018-07-27T07:44:15.818Z,39.8
2018-07-27T07:45:06.424Z,39.4
2018-07-27T07:45:55.973Z,39.1
2018-07-27T07:46:45.735Z,38.9
2018-07-27T07:47:36.497Z,38.6
2018-07-27T07:48:26.464Z,38.4
2018-07-27T07:49:16.667Z,38.3
2018-07-27T07:50:06.587Z,38
2018-07-27T07:50:56.324Z,37.9
2018-07-27T07:51:45.637Z,37.7
2018-07-27T07:52:35.397Z,37.5
2018-07-27T07:53:26.835Z,37.3
2018-07-27T07:54:16.581Z,37.2
2018-07-27T07:55:06.967Z,37.1
2018-07-27T07:55:56.223Z,37.3
2018-07-27T07:56:47.081Z,42.9
2018-07-27T07:57:36.609Z,44.2
2018-07-27T07:58:25.830Z,44.9
2018-07-27T07:59:17.251Z,44.6
2018-07-27T08:00:06.798Z,43.6
2018-07-27T08:00:56.846Z,42.6
2018-07-27T08:01:46.704Z,42
2018-07-27T08:02:36.801Z,41.6
2018-07-27T08:03:26.833Z,41.2
2018-07-27T08:04:16.688Z,40.9
2018-07-27T08:05:06.361Z,40.6
2018-07-27T08:05:56.963Z,40.3
2018-07-27T08:06:47.265Z,40.1
2018-07-27T08:07:36.994Z,39.8
2018-07-27T08:08:27.338Z,39.6
2018-07-27T08:09:17.651Z,39.4
2018-07-27T08:10:07.506Z,39.2
2018-07-27T08:10:57.036Z,39
2018-07-27T08:11:47.877Z,38.8
2018-07-27T08:12:38.129Z,38.5
2018-07-27T08:13:27.825Z,38.3
2018-07-27T08:14:17.865Z,39.4
2018-07-27T08:15:08.191Z,43.4
2018-07-27T08:15:58.018Z,44.2
2018-07-27T08:16:47.449Z,46.1
2018-07-27T08:17:38.357Z,46.8
2018-07-27T08:18:28.514Z,46.7
2018-07-27T08:19:18.790Z,46.5
2018-07-27T08:20:08.580Z,46.4
2018-07-27T08:20:58.339Z,46.5
2018-07-27T08:21:48.891Z,46.7
2018-07-27T08:22:38.774Z,47
2018-07-27T08:23:29.117Z,47.2
2018-07-27T08:24:18.842Z,47.4
2018-07-27T08:25:08.899Z,47.4
2018-07-27T08:25:59.689Z,47.5
2018-07-27T08:26:49.025Z,47.5
2018-07-27T08:27:38.266Z,47.7
2018-07-27T08:28:28.877Z,47.9
2018-07-27T08:29:19.503Z,48
2018-07-27T08:30:09.103Z,48.1
2018-07-27T08:30:59.082Z,48.3
2018-07-27T08:31:49.752Z,48.3
2018-07-27T08:32:39.510Z,48.4
2018-07-27T08:33:29.231Z,48.6
2018-07-27T08:34:19.838Z,48.6
2018-07-27T08:35:09.716Z,48.7
2018-07-27T08:35:59.515Z,48.8
2018-07-27T08:36:48.988Z,48.8
2018-07-27T08:37:40.397Z,48.9
2018-07-27T08:38:30.282Z,48.9
2018-07-27T08:39:19.792Z,49
2018-07-27T08:40:10.114Z,49.1
2018-07-27T08:41:00.202Z,49.1
2018-07-27T08:41:50.508Z,49.2
2018-07-27T08:42:40.107Z,49.3
2018-07-27T08:43:30.388Z,49.3
2018-07-27T08:44:20.121Z,49.4
2018-07-27T08:45:10.807Z,49.4
2018-07-27T08:46:00.332Z,49.5
2018-07-27T08:46:50.956Z,49.6
2018-07-27T08:47:40.681Z,49.7
2018-07-27T08:48:31.034Z,49.8
2018-07-27T08:49:20.531Z,49.9
2018-07-27T08:50:11.202Z,49.9
2018-07-27T08:51:01.249Z,49.9
2018-07-27T08:51:51.305Z,50
2018-07-27T08:52:40.523Z,50.1
2018-07-27T08:53:31.156Z,50.1
2018-07-27T08:54:21.475Z,50.3
2018-07-27T08:55:11.566Z,50.4
2018-07-27T08:56:00.553Z,50.6
2018-07-27T08:56:50.798Z,50.7
2018-07-27T08:57:40.724Z,50.8
2018-07-27T08:58:30.903Z,51
2018-07-27T08:59:21.291Z,51.1
2018-07-27T09:00:11.601Z,51.2
2018-07-27T09:01:01.694Z,51.3
2018-07-27T09:01:51.206Z,51.4
2018-07-27T09:02:41.406Z,51.5
2018-07-27T09:03:31.593Z,51.7
2018-07-27T09:05:11.514Z,52.1
2018-07-27T09:06:02.142Z,52.3
2018-07-27T09:06:52.125Z,52.3
2018-07-27T09:07:41.113Z,52.3
2018-07-27T09:08:32.242Z,52.4
2018-07-27T09:09:22.042Z,52.6
2018-07-27T09:10:12.607Z,52.9
2018-07-27T09:11:01.843Z,53.2
2018-07-27T09:11:52.858Z,53.4
2018-07-27T09:12:42.635Z,53.7
2018-07-27T09:13:32.937Z,53.8
2018-07-27T09:14:21.602Z,53.9
2018-07-27T09:15:13.127Z,54.1
2018-07-27T09:16:02.908Z,54.2
2018-07-27T09:16:52.672Z,54.3
2018-07-27T09:17:43.295Z,54.4
2018-07-27T09:18:33.347Z,54.4
2018-07-27T09:19:23.165Z,54.6
2018-07-27T09:20:13.201Z,54.9
2018-07-27T09:21:03.588Z,55
2018-07-27T09:21:53.629Z,55.2
2018-07-27T09:22:43.410Z,55.3
2018-07-27T09:23:33.214Z,55.5
2018-07-27T09:24:24.858Z,55.6
2018-07-27T09:25:18.110Z,55.8
2018-07-27T09:26:04.111Z,55.9
2018-07-27T09:26:54.022Z,56.1
2018-07-27T09:27:43.204Z,56.2
2018-07-27T09:28:34.117Z,56.3
2018-07-27T09:29:24.240Z,56.6
2018-07-27T09:30:13.991Z,56.7
2018-07-27T09:31:04.319Z,56.8
2018-07-27T09:31:53.861Z,56.9
2018-07-27T09:32:44.423Z,57.1
2018-07-27T09:33:34.174Z,57.2
2018-07-27T09:34:24.284Z,57.3
2018-07-27T09:35:14.100Z,57.4
2018-07-27T09:36:04.421Z,57.5
2018-07-27T09:36:54.246Z,57.6
2018-07-27T09:37:44.062Z,57.7
2018-07-27T09:38:34.678Z,57.8
2018-07-27T09:39:24.408Z,57.9
2018-07-27T09:40:14.487Z,58
2018-07-27T09:41:04.270Z,58.2
2018-07-27T09:41:54.553Z,58.3
2018-07-27T09:42:44.926Z,58.3
2018-07-27T09:43:34.871Z,58.4
2018-07-27T09:45:15.387Z,58.7
2018-07-27T09:46:05.537Z,58.8
2018-07-27T09:46:55.013Z,58.9
2018-07-27T09:47:45.305Z,58.9
2018-07-27T09:48:34.217Z,59.1
2018-07-27T09:49:25.818Z,59.1
2018-07-27T09:50:15.855Z,59.2
2018-07-27T09:51:05.912Z,59.3
2018-07-27T09:51:55.401Z,59.3
2018-07-27T09:52:45.444Z,59.3
2018-07-27T09:53:34.887Z,59.4
2018-07-27T09:54:25.599Z,59.5
2018-07-27T09:55:16.172Z,59.6
2018-07-27T09:56:05.951Z,59.7
2018-07-27T09:56:56.284Z,59.7
2018-07-27T09:57:45.863Z,59.5
2018-07-27T09:58:36.483Z,59.4
2018-07-27T09:59:26.236Z,59.5
2018-07-27T10:00:15.536Z,59.8
2018-07-27T10:01:06.374Z,59.9
2018-07-27T10:01:56.715Z,60
2018-07-27T10:02:46.444Z,60.1
2018-07-27T10:03:36.826Z,60.2
2018-07-27T10:04:26.854Z,60.3
2018-07-27T10:05:16.912Z,60.4
2018-07-27T10:06:06.756Z,60.4
2018-07-27T10:06:56.777Z,60.5
2018-07-27T10:07:46.882Z,60.6
2018-07-27T10:08:36.344Z,60.8
2018-07-27T10:09:26.408Z,60.8
2018-07-27T10:10:17.344Z,60.9
2018-07-27T10:11:07.068Z,61
2018-07-27T10:11:57.173Z,61.1
2018-07-27T10:12:47.279Z,61.1
2018-07-27T10:13:37.573Z,61.3
2018-07-27T10:14:27.036Z,61.4
2018-07-27T10:15:16.290Z,61.4
2018-07-27T10:16:06.921Z,61.4
2018-07-27T10:16:57.543Z,61.6
2018-07-27T10:17:47.288Z,61.6
2018-07-27T10:18:38.156Z,61.7
2018-07-27T10:19:27.691Z,61.8
2018-07-27T10:20:17.043Z,61.9
2018-07-27T10:21:07.577Z,61.9
2018-07-27T10:21:58.189Z,62
2018-07-27T10:22:48.318Z,62.1
2018-07-27T10:23:37.840Z,62.1
2018-07-27T10:24:27.555Z,62.2
2018-07-27T10:25:18.212Z,62.3
2018-07-27T10:26:08.053Z,62.3
2018-07-27T10:26:58.399Z,62.4
2018-07-27T10:27:48.709Z,62.4
2018-07-27T10:28:38.237Z,62.6
2018-07-27T10:29:28.572Z,62.6
2018-07-27T10:30:18.660Z,62.7
2018-07-27T10:31:09.119Z,62.8
2018-07-27T10:31:59.073Z,62.9
2018-07-27T10:32:49.087Z,62.9
2018-07-27T10:33:38.345Z,63
2018-07-27T10:34:29.234Z,63.1
2018-07-27T10:35:19.005Z,63.1
2018-07-27T10:36:09.337Z,63.2
2018-07-27T10:36:59.140Z,63.3
2018-07-27T10:37:49.511Z,63.4
2018-07-27T10:38:39.696Z,63.4
2018-07-27T10:39:29.621Z,63.5
2018-07-27T10:40:19.378Z,63.6
2018-07-27T10:41:09.470Z,63.6
2018-07-27T10:41:59.798Z,63.7
2018-07-27T10:42:49.787Z,63.8
2018-07-27T10:43:39.998Z,63.8
2018-07-27T10:44:29.436Z,63.8
2018-07-27T10:45:19.756Z,63.9
2018-07-27T10:46:09.558Z,63.9
2018-07-27T10:46:59.066Z,64
2018-07-27T10:47:49.102Z,64.1
2018-07-27T10:48:40.031Z,64.2
2018-07-27T10:49:30.083Z,64.3
2018-07-27T10:50:21.156Z,64.3
2018-07-27T10:51:09.385Z,64.3
2018-07-27T10:52:00.005Z,64.4
2018-07-27T10:52:50.794Z,64.4
2018-07-27T10:53:39.549Z,64.5
2018-07-27T10:54:30.460Z,64.6
2018-07-27T10:55:19.968Z,64.6
2018-07-27T10:56:10.026Z,64.8
2018-07-27T10:57:00.372Z,64.8
2018-07-27T10:57:51.023Z,64.8
2018-07-27T10:58:40.637Z,64.9
2018-07-27T10:59:30.588Z,64.9
2018-07-27T11:00:20.962Z,65.1
2018-07-27T11:01:11.052Z,65.1
2018-07-27T11:02:00.800Z,65.1
2018-07-27T11:02:51.425Z,65.2
2018-07-27T11:03:41.502Z,65.3
2018-07-27T11:04:31.560Z,65.3
2018-07-27T11:05:21.347Z,65.4
2018-07-27T11:06:11.717Z,65.4
2018-07-27T11:07:01.500Z,65.5
2018-07-27T11:07:51.539Z,65.5
2018-07-27T11:08:42.266Z,65.6
2018-07-27T11:09:31.422Z,65.7